Time;durP1;ratioP1;P1;durP2;ratioP2;P2;SDS_P1;SDS_P2;PMS_P1;PMS_P2;Temp;Humidity;BMP_temperature;BMP_pressure;BME280_temperature;BME280_humidity;BME280_pressure;Samples;Min_cycle;Max_cycle;Signal;HPM_P1;HPM_P2
2022/06/06 00:01:52;;;;;;;1.00;0.60;;;13.60;90.10;;;;;;6243271;22;20005;-75
2022/06/06 00:04:29;;;;;;;1.58;0.40;;;13.60;90.20;;;;;;6243565;22;20431;-79
2022/06/06 00:07:15;;;;;;;2.15;0.50;;;13.70;88.80;;;;;;6242876;22;20028;-78
2022/06/06 00:09:42;;;;;;;0.70;0.57;;;13.80;86.50;;;;;;6242029;22;20054;-71
2022/06/06 00:12:10;;;;;;;0.73;0.70;;;13.80;86.10;;;;;;6243366;22;20420;-75
2022/06/06 00:14:37;;;;;;;1.40;0.50;;;13.80;87.60;;;;;;6243349;22;20000;-69
2022/06/06 00:17:05;;;;;;;1.27;0.40;;;13.90;86.70;;;;;;6242271;22;20004;-73
2022/06/06 00:19:32;;;;;;;0.50;0.50;;;13.90;86.00;;;;;;6241431;23;20498;-73
2022/06/06 00:22:00;;;;;;;1.00;0.50;;;13.90;84.90;;;;;;6242461;22;20004;-74
2022/06/06 00:24:29;;;;;;;2.33;0.60;;;14.00;84.20;;;;;;6240858;23;20327;-72
2022/06/06 00:26:56;;;;;;;0.38;0.38;;;14.00;84.00;;;;;;6240948;23;20004;-72
2022/06/06 00:29:24;;;;;;;3.00;0.50;;;14.00;83.80;;;;;;6242379;22;20598;-72
2022/06/06 00:34:49;;;;;;;1.85;0.43;;;14.10;83.40;;;;;;6242835;23;20015;-73
2022/06/06 00:37:23;;;;;;;1.02;0.40;;;14.10;82.60;;;;;;6216968;23;20008;-73
2022/06/06 00:39:51;;;;;;;0.98;0.40;;;14.10;82.50;;;;;;6241382;22;20461;-74
2022/06/06 00:42:35;;;;;;;0.63;0.50;;;14.30;82.60;;;;;;6243590;22;20391;-69
2022/06/06 00:45:24;;;;;;;1.10;1.00;;;14.30;82.60;;;;;;6241487;23;20137;-72
2022/06/06 00:48:00;;;;;;;1.75;0.40;;;14.30;82.10;;;;;;6245001;22;20028;-71
2022/06/06 00:50:43;;;;;;;2.38;0.40;;;14.40;80.90;;;;;;6243953;22;20073;-66
2022/06/06 00:53:10;;;;;;;;;;;14.50;81.10;;;;;;6244452;22;19996;-68
2022/06/06 00:55:41;;;;;;;0.93;0.52;;;14.50;80.60;;;;;;6242716;22;19903;-76
2022/06/06 00:58:17;;;;;;;0.80;0.50;;;14.50;80.30;;;;;;6243503;22;20004;-75
2022/06/06 01:00:47;;;;;;;5.35;0.68;;;14.50;80.90;;;;;;6241957;22;19996;-75
2022/06/06 01:03:18;;;;;;;1.83;0.57;;;14.70;82.00;;;;;;6243741;22;20012;-75
2022/06/06 01:05:47;;;;;;;0.70;0.38;;;14.60;81.10;;;;;;6243694;22;20004;-72
2022/06/06 01:08:18;;;;;;;0.98;0.50;;;14.70;80.60;;;;;;6241661;23;20016;-77
2022/06/06 01:10:45;;;;;;;2.55;0.50;;;14.90;80.10;;;;;;6242912;22;20054;-73
2022/06/06 01:13:16;;;;;;;0.55;0.50;;;14.90;80.00;;;;;;6242512;22;20008;-75
2022/06/06 01:16:15;;;;;;;0.55;0.45;;;15.00;80.00;;;;;;6241986;22;20370;-71
2022/06/06 01:18:58;;;;;;;0.98;0.65;;;15.00;78.90;;;;;;6242326;22;20004;-69
2022/06/06 01:22:00;;;;;;;0.70;0.52;;;15.10;78.70;;;;;;6242351;22;20001;-71
2022/06/06 01:24:39;;;;;;;0.60;0.40;;;15.10;78.50;;;;;;6242502;22;20027;-71
2022/06/06 01:27:13;;;;;;;0.70;0.60;;;15.20;77.90;;;;;;6241679;22;20052;-73
2022/06/06 01:29:52;;;;;;;0.80;0.50;;;15.30;78.30;;;;;;6240651;22;20450;-69
2022/06/06 01:32:23;;;;;;;0.77;0.50;;;15.30;77.40;;;;;;6239934;23;20012;-70
2022/06/06 01:34:55;;;;;;;1.50;0.50;;;15.50;78.30;;;;;;6241347;22;20004;-76
2022/06/06 01:37:29;;;;;;;1.30;0.95;;;15.50;77.90;;;;;;6240196;23;20230;-74
2022/06/06 01:40:00;;;;;;;1.17;0.40;;;15.60;77.40;;;;;;6241455;22;20458;-70
2022/06/06 01:42:38;;;;;;;1.20;0.40;;;15.70;76.70;;;;;;6243851;22;20004;-72
2022/06/06 01:45:39;;;;;;;1.38;0.50;;;15.80;77.30;;;;;;6241933;23;20011;-66
2022/06/06 01:48:18;;;;;;;3.50;0.80;;;15.90;78.00;;;;;;6236231;23;20034;-71
2022/06/06 01:50:46;;;;;;;0.90;0.68;;;16.00;77.90;;;;;;6242324;22;20028;-74
2022/06/06 01:53:21;;;;;;;0.93;0.50;;;16.20;76.70;;;;;;6242402;22;19996;-69
2022/06/06 01:55:50;;;;;;;1.75;0.50;;;16.30;76.80;;;;;;6242715;22;20010;-73
2022/06/06 01:58:30;;;;;;;1.50;0.40;;;16.50;76.60;;;;;;6243327;22;20008;-74
2022/06/06 02:00:57;;;;;;;1.90;0.55;;;16.60;75.00;;;;;;6242215;22;20004;-75
2022/06/06 02:03:25;;;;;;;1.35;0.40;;;16.60;75.10;;;;;;6242926;22;20023;-75
2022/06/06 02:05:52;;;;;;;2.67;0.50;;;16.60;74.70;;;;;;6242901;22;20004;-76
2022/06/06 02:08:22;;;;;;;1.13;0.50;;;16.70;75.50;;;;;;6243852;22;20035;-73
2022/06/06 02:10:50;;;;;;;1.30;0.55;;;16.60;74.00;;;;;;6240489;23;20005;-68
2022/06/06 02:13:17;;;;;;;1.38;0.50;;;16.60;73.80;;;;;;6243026;22;20014;-73
2022/06/06 02:15:45;;;;;;;1.63;0.55;;;16.60;74.80;;;;;;6242075;22;20430;-70
2022/06/06 02:18:12;;;;;;;0.88;0.50;;;16.60;74.20;;;;;;6241918;22;20004;-73
2022/06/06 02:20:41;;;;;;;1.42;0.50;;;16.60;74.30;;;;;;6242133;22;20004;-67
2022/06/06 02:23:10;;;;;;;0.77;0.40;;;16.60;74.20;;;;;;6243033;22;20087;-71
2022/06/06 02:25:37;;;;;;;1.60;0.40;;;16.60;73.80;;;;;;6241990;22;20004;-71
2022/06/06 02:28:07;;;;;;;5.13;0.50;;;16.60;73.90;;;;;;6240379;23;20442;-74
2022/06/06 02:30:37;;;;;;;1.17;0.50;;;16.70;73.80;;;;;;6239907;23;20015;-74
2022/06/06 02:33:06;;;;;;;2.30;0.40;;;17.00;73.10;;;;;;6241554;22;20004;-70
2022/06/06 02:35:37;;;;;;;4.88;0.60;;;17.10;73.80;;;;;;6241623;22;20003;-72
2022/06/06 02:38:08;;;;;;;1.15;0.40;;;17.30;73.60;;;;;;6242594;22;20004;-77
2022/06/06 02:40:36;;;;;;;2.45;0.47;;;17.50;72.70;;;;;;6242268;23;20393;-74
2022/06/06 02:43:04;;;;;;;2.55;1.40;;;17.60;72.20;;;;;;6243180;22;20717;-69
2022/06/06 02:45:31;;;;;;;0.70;0.35;;;17.80;72.30;;;;;;6245502;22;19996;-68
2022/06/06 02:47:59;;;;;;;1.73;0.50;;;18.00;71.20;;;;;;6245457;22;20094;-75
2022/06/06 02:50:30;;;;;;;3.15;0.52;;;18.20;70.90;;;;;;6244851;22;20008;-72
2022/06/06 02:52:59;;;;;;;0.85;0.40;;;18.30;71.00;;;;;;6244416;22;20002;-73
2022/06/06 02:55:26;;;;;;;1.70;0.40;;;18.70;69.60;;;;;;6244020;22;20004;-74
2022/06/06 02:57:54;;;;;;;1.58;0.50;;;18.60;68.90;;;;;;6245902;22;20000;-71
2022/06/06 03:00:26;;;;;;;0.35;0.35;;;18.50;68.90;;;;;;6245402;22;20079;-74
2022/06/06 03:02:54;;;;;;;0.97;0.50;;;18.50;69.40;;;;;;6242662;23;20091;-71
2022/06/06 03:05:23;;;;;;;0.43;0.30;;;18.60;69.40;;;;;;6243872;23;20241;-70
2022/06/06 03:08:18;;;;;;;2.05;0.50;;;18.90;69.30;;;;;;6244183;22;20035;-72
2022/06/06 03:11:08;;;;;;;0.68;0.50;;;19.00;69.60;;;;;;6244903;22;20093;-71
2022/06/06 03:14:05;;;;;;;3.60;0.40;;;19.30;68.90;;;;;;6245650;22;20427;-72
2022/06/06 03:22:58;;;;;;;0.68;0.68;;;19.40;66.60;;;;;;6242788;23;20350;-73
2022/06/06 03:25:49;;;;;;;2.28;0.40;;;19.30;66.90;;;;;;6246171;22;20000;-74
2022/06/06 03:28:24;;;;;;;0.52;0.40;;;19.40;68.20;;;;;;6246060;22;20419;-69
2022/06/06 03:31:26;;;;;;;2.35;0.63;;;19.50;66.30;;;;;;6246889;22;20468;-69
2022/06/06 03:34:08;;;;;;;2.95;0.40;;;19.80;66.90;;;;;;6245884;23;20004;-71
2022/06/06 03:36:50;;;;;;;2.17;0.40;;;20.20;65.20;;;;;;6244613;22;20007;-72
2022/06/06 03:39:25;;;;;;;0.65;0.50;;;20.50;64.80;;;;;;6245639;22;20000;-68
2022/06/06 03:42:03;;;;;;;0.30;0.30;;;21.10;63.80;;;;;;6245792;22;20062;-73
2022/06/06 03:44:58;;;;;;;2.65;0.40;;;21.20;62.40;;;;;;6245449;22;20004;-71
2022/06/06 03:48:31;;;;;;;1.05;0.50;;;21.50;61.70;;;;;;6244860;23;20072;-70
2022/06/06 03:51:13;;;;;;;1.17;0.40;;;21.10;61.40;;;;;;6160217;22;20451;-73
2022/06/06 03:54:14;;;;;;;0.38;0.38;;;21.00;62.70;;;;;;6244470;22;20000;-71
2022/06/06 03:57:11;;;;;;;0.38;0.30;;;21.00;61.90;;;;;;6244960;22;20008;-74
2022/06/06 03:59:42;;;;;;;2.88;0.60;;;21.20;61.00;;;;;;6244138;22;20000;-67
2022/06/06 04:02:20;;;;;;;0.30;0.30;;;20.80;61.10;;;;;;6245341;22;20383;-71
2022/06/06 04:04:50;;;;;;;0.50;0.38;;;20.80;61.90;;;;;;6244849;22;20020;-72
2022/06/06 04:07:17;;;;;;;1.52;0.38;;;20.50;61.40;;;;;;6242573;23;20058;-67
2022/06/06 04:09:47;;;;;;;0.60;0.30;;;20.10;61.70;;;;;;6243883;22;20012;-72
2022/06/06 04:12:39;;;;;;;0.60;0.40;;;19.60;62.10;;;;;;6245283;22;20023;-74
2022/06/06 04:15:19;;;;;;;0.50;0.50;;;19.10;63.20;;;;;;6242965;22;20016;-73
2022/06/06 04:17:59;;;;;;;0.90;0.50;;;18.70;64.60;;;;;;6240831;23;20004;-74
2022/06/06 04:20:51;;;;;;;0.93;0.32;;;18.40;65.00;;;;;;6238222;22;20023;-70
2022/06/06 04:23:40;;;;;;;0.77;0.50;;;18.10;65.30;;;;;;6239334;23;20004;-73
2022/06/06 04:26:22;;;;;;;0.88;0.30;;;17.90;65.40;;;;;;6241367;22;20138;-71
2022/06/06 04:29:05;;;;;;;0.63;0.50;;;17.70;65.10;;;;;;6243026;22;20034;-72
2022/06/06 04:31:55;;;;;;;1.77;0.40;;;17.60;66.50;;;;;;6243987;22;19996;-72
2022/06/06 04:34:46;;;;;;;1.27;0.55;;;17.50;66.30;;;;;;6244244;22;20011;-74
2022/06/06 04:37:32;;;;;;;1.58;0.50;;;17.40;66.60;;;;;;6243477;22;20004;-72
2022/06/06 04:40:03;;;;;;;3.00;0.38;;;17.40;67.30;;;;;;6242928;22;20008;-74
2022/06/06 04:42:52;;;;;;;0.60;0.40;;;17.40;68.30;;;;;;6243276;22;19996;-73
2022/06/06 04:46:04;;;;;;;1.40;0.50;;;17.40;67.00;;;;;;6243688;22;20031;-72
2022/06/06 04:48:34;;;;;;;0.93;0.43;;;17.40;65.30;;;;;;6118681;23;20401;-75
2022/06/06 04:51:04;;;;;;;1.98;0.30;;;17.40;65.60;;;;;;6120203;23;20006;-70
2022/06/06 04:53:37;;;;;;;0.93;0.50;;;17.40;63.40;;;;;;6192851;22;20035;-71
2022/06/06 04:56:06;;;;;;;1.83;0.40;;;17.40;63.90;;;;;;6242575;22;20000;-72
2022/06/06 04:58:37;;;;;;;0.77;0.40;;;17.40;64.20;;;;;;6242291;22;20430;-69
2022/06/06 05:01:04;;;;;;;0.30;0.30;;;17.30;62.80;;;;;;6244816;22;20004;-69
2022/06/06 05:03:32;;;;;;;0.38;0.30;;;17.30;62.50;;;;;;6244941;22;20346;-70
2022/06/06 05:06:08;;;;;;;1.63;0.80;;;17.40;63.30;;;;;;6244977;22;20007;-68
2022/06/06 05:09:12;;;;;;;0.52;0.40;;;17.40;63.40;;;;;;6242562;22;20057;-73
2022/06/06 05:12:03;;;;;;;0.63;0.40;;;17.60;62.20;;;;;;6242158;22;20087;-73
2022/06/06 05:14:42;;;;;;;1.85;0.50;;;17.60;62.50;;;;;;6242257;23;20649;-74
2022/06/06 05:17:12;;;;;;;0.43;0.35;;;17.60;62.50;;;;;;6241815;22;20011;-75
2022/06/06 05:20:07;;;;;;;0.40;0.40;;;17.50;62.20;;;;;;6239870;22;20020;-73
2022/06/06 05:22:52;;;;;;;1.17;0.40;;;17.50;61.80;;;;;;6240376;23;19996;-73
2022/06/06 05:25:46;;;;;;;1.17;0.40;;;17.60;63.20;;;;;;6228940;22;20004;-71
2022/06/06 05:28:49;;;;;;;1.58;0.60;;;17.70;63.50;;;;;;6239185;22;20008;-71
2022/06/06 05:31:28;;;;;;;0.40;0.40;;;17.70;63.00;;;;;;6244678;22;20003;-72
2022/06/06 05:34:09;;;;;;;0.60;0.40;;;17.90;60.90;;;;;;6240024;22;20035;-74
2022/06/06 05:37:15;;;;;;;3.00;0.40;;;18.10;59.90;;;;;;6242107;22;19996;-74
2022/06/06 05:40:25;;;;;;;0.40;0.40;;;18.20;59.40;;;;;;6241800;22;20011;-71
2022/06/06 05:43:18;;;;;;;0.40;0.35;;;18.20;59.80;;;;;;6243772;22;20066;-75
2022/06/06 05:46:13;;;;;;;0.93;0.40;;;18.10;60.40;;;;;;6248097;22;19997;-74
2022/06/06 05:49:08;;;;;;;0.73;0.35;;;18.10;61.40;;;;;;6242768;23;20544;-70
2022/06/06 05:52:36;;;;;;;0.47;0.40;;;18.10;61.00;;;;;;6243190;22;20012;-73
2022/06/06 05:55:43;;;;;;;0.40;0.40;;;18.10;58.30;;;;;;6118458;23;20034;-75
2022/06/06 05:58:22;;;;;;;2.47;0.30;;;18.10;59.00;;;;;;6121073;23;20010;-71
2022/06/06 06:01:11;;;;;;;0.57;0.30;;;18.10;58.60;;;;;;6240540;22;20015;-74
2022/06/06 06:04:04;;;;;;;1.52;0.30;;;18.10;58.90;;;;;;6243075;22;20016;-73
2022/06/06 06:06:48;;;;;;;2.60;0.40;;;18.10;58.00;;;;;;6241712;22;19996;-70
2022/06/06 06:09:33;;;;;;;0.38;0.20;;;17.90;58.60;;;;;;6242254;22;20493;-68
2022/06/06 06:12:09;;;;;;;0.28;0.25;;;17.60;57.90;;;;;;6241916;22;20020;-69
2022/06/06 06:15:16;;;;;;;1.45;0.30;;;17.40;58.00;;;;;;6241700;22;20012;-74
2022/06/06 06:18:14;;;;;;;3.45;0.40;;;17.20;58.00;;;;;;6121280;23;20659;-73
2022/06/06 06:20:59;;;;;;;0.60;0.32;;;16.90;58.80;;;;;;6241353;23;20004;-71
2022/06/06 06:23:30;;;;;;;1.08;0.60;;;16.70;59.60;;;;;;6241920;23;20442;-70
2022/06/06 06:26:20;;;;;;;0.47;0.40;;;16.60;58.90;;;;;;6245152;22;20000;-74
2022/06/06 06:28:49;;;;;;;2.47;0.30;;;16.40;61.30;;;;;;6241967;23;20091;-74
2022/06/06 06:31:29;;;;;;;1.65;0.40;;;16.20;59.00;;;;;;6243446;22;20390;-76
2022/06/06 06:34:08;;;;;;;0.50;0.50;;;16.00;59.30;;;;;;6243218;22;20007;-69
2022/06/06 06:36:38;;;;;;;0.40;0.35;;;16.00;60.10;;;;;;6242191;22;20086;-72
2022/06/06 06:39:09;;;;;;;0.40;0.40;;;15.80;60.50;;;;;;6242524;22;19996;-75
2022/06/06 06:41:56;;;;;;;0.45;0.40;;;15.80;60.70;;;;;;6243481;22;20366;-77
2022/06/06 06:44:36;;;;;;;3.42;0.68;;;15.70;61.50;;;;;;6241547;22;20004;-71
2022/06/06 06:47:18;;;;;;;0.88;0.50;;;15.60;61.60;;;;;;6241551;22;20004;-69
2022/06/06 06:50:11;;;;;;;0.70;0.50;;;15.50;61.80;;;;;;6240161;23;20023;-68
2022/06/06 06:53:13;;;;;;;0.50;0.45;;;15.40;61.70;;;;;;6224808;23;20019;-73
2022/06/06 06:55:58;;;;;;;0.60;0.50;;;15.30;62.60;;;;;;6240103;23;20005;-75
2022/06/06 06:59:05;;;;;;;0.55;0.40;;;15.30;62.50;;;;;;6241291;22;20036;-71
2022/06/06 07:01:40;;;;;;;1.20;0.43;;;15.20;63.40;;;;;;6243200;22;20000;-70
2022/06/06 07:10:53;;;;;;;3.08;0.60;;;15.00;63.10;;;;;;6242911;23;20027;-73
2022/06/06 07:13:26;;;;;;;1.63;0.70;;;14.90;63.80;;;;;;6242565;22;20027;-73
2022/06/06 07:16:02;;;;;;;0.40;0.40;;;14.80;64.10;;;;;;6241130;23;20035;-76
2022/06/06 07:18:33;;;;;;;2.67;0.40;;;14.80;63.50;;;;;;6240278;23;20066;-80
2022/06/06 07:21:05;;;;;;;0.95;0.45;;;14.80;63.90;;;;;;6242423;22;20453;-79
2022/06/06 07:23:38;;;;;;;3.10;1.63;;;14.70;64.40;;;;;;6240346;23;20063;-68
2022/06/06 07:26:08;;;;;;;1.63;1.10;;;14.70;64.20;;;;;;6242321;22;20458;-79
2022/06/06 07:28:35;;;;;;;1.05;0.50;;;14.60;64.40;;;;;;6240714;22;20489;-71
2022/06/06 07:31:18;;;;;;;2.88;0.52;;;14.60;64.70;;;;;;6242631;22;20000;-68
2022/06/06 07:33:55;;;;;;;0.93;0.50;;;14.60;64.90;;;;;;6243107;22;20542;-76
2022/06/06 07:36:39;;;;;;;2.42;0.63;;;14.50;65.20;;;;;;6244465;22;20005;-72
2022/06/06 07:39:20;;;;;;;2.90;1.27;;;14.40;65.30;;;;;;6243811;22;20015;-78
2022/06/06 07:42:21;;;;;;;1.20;0.70;;;14.40;65.90;;;;;;6244784;22;20030;-82
2022/06/06 07:45:07;;;;;;;2.60;1.35;;;14.30;66.30;;;;;;6244932;22;20007;-75
2022/06/06 07:48:09;;;;;;;4.28;2.53;;;14.20;66.10;;;;;;6244162;22;19996;-74
2022/06/06 07:50:56;;;;;;;5.27;2.30;;;14.20;66.40;;;;;;6207341;22;20008;-77
2022/06/06 07:53:42;;;;;;;1.67;0.82;;;14.10;66.80;;;;;;6182553;22;20232;-75
2022/06/06 07:56:09;;;;;;;3.38;1.75;;;14.20;66.70;;;;;;6244255;22;20334;-70
2022/06/06 07:58:50;;;;;;;8.18;5.85;;;14.10;67.00;;;;;;6243990;22;20008;-75
2022/06/06 08:01:56;;;;;;;12.30;10.05;;;14.10;67.10;;;;;;6242459;22;20024;-69
2022/06/06 08:04:55;;;;;;;2.53;0.80;;;14.00;67.50;;;;;;6122186;23;20021;-71
2022/06/06 08:07:45;;;;;;;2.92;1.63;;;14.00;67.60;;;;;;6242536;23;20004;-75
2022/06/06 08:10:38;;;;;;;1.38;0.80;;;13.90;68.10;;;;;;6243902;22;20008;-80
2022/06/06 08:13:16;;;;;;;;;;;13.80;68.80;;;;;;6245716;22;20154;-74
2022/06/06 08:16:10;;;;;;;2.67;1.30;;;13.70;69.50;;;;;;6244291;22;19900;-74
2022/06/06 08:19:13;;;;;;;7.05;4.47;;;13.70;69.10;;;;;;6244193;22;20079;-80
2022/06/06 08:21:44;;;;;;;5.25;3.58;;;13.60;69.80;;;;;;6244321;22;20331;-74
2022/06/06 08:24:17;;;;;;;7.40;4.23;;;13.60;69.80;;;;;;6246053;22;20369;-79
2022/06/06 08:26:49;;;;;;;2.80;1.52;;;13.60;70.80;;;;;;6246774;22;20001;-76
2022/06/06 08:29:17;;;;;;;2.65;1.02;;;13.50;70.40;;;;;;6244751;22;20012;-74
2022/06/06 08:31:45;;;;;;;2.25;0.93;;;13.50;70.60;;;;;;6243934;22;20008;-79
2022/06/06 08:34:13;;;;;;;3.08;1.00;;;13.50;70.70;;;;;;6243507;22;20091;-68
2022/06/06 08:36:49;;;;;;;2.75;1.08;;;13.50;70.90;;;;;;6243631;22;20762;-80
2022/06/06 08:39:32;;;;;;;2.25;0.95;;;13.50;71.30;;;;;;6245202;22;20079;-82
2022/06/06 08:42:33;;;;;;;2.35;1.10;;;13.50;71.70;;;;;;6245260;22;20442;-80
2022/06/06 08:45:19;;;;;;;2.47;1.27;;;13.40;72.40;;;;;;6244949;22;20351;-75
2022/06/06 08:48:38;;;;;;;2.83;0.95;;;13.30;72.80;;;;;;6245007;22;20536;-78
2022/06/06 08:51:33;;;;;;;2.33;1.27;;;13.30;73.30;;;;;;6195754;22;20015;-79
2022/06/06 08:54:32;;;;;;;4.32;1.63;;;13.10;73.90;;;;;;6244944;22;20368;-75
2022/06/06 08:57:27;;;;;;;3.10;1.27;;;13.00;74.40;;;;;;6177405;22;20340;-73
2022/06/06 09:00:21;;;;;;;4.10;1.42;;;13.00;74.70;;;;;;6244460;22;20000;-71
2022/06/06 09:03:18;;;;;;;2.70;1.40;;;13.00;75.30;;;;;;6244380;22;20050;-75
2022/06/06 09:06:04;;;;;;;5.75;2.45;;;12.90;75.80;;;;;;6244945;22;20012;-71
2022/06/06 09:08:52;;;;;;;2.47;1.15;;;12.90;76.10;;;;;;6243943;22;20004;-71
2022/06/06 09:11:44;;;;;;;4.95;2.08;;;12.80;76.10;;;;;;6244782;22;20004;-67
2022/06/06 09:14:18;;;;;;;8.15;4.53;;;12.80;76.70;;;;;;6244206;22;20007;-78
2022/06/06 09:17:09;;;;;;;2.45;1.20;;;12.80;77.30;;;;;;6245719;22;19996;-69
2022/06/06 09:20:03;;;;;;;2.33;1.40;;;12.70;77.20;;;;;;6246268;22;20079;-67
2022/06/06 09:22:51;;;;;;;3.65;1.13;;;12.60;77.80;;;;;;6200114;22;20004;-65
2022/06/06 09:25:35;;;;;;;3.88;1.13;;;12.60;77.70;;;;;;6243137;22;20012;-72
2022/06/06 09:28:35;;;;;;;4.50;1.40;;;12.60;78.00;;;;;;6244040;22;20016;-66
2022/06/06 09:31:02;;;;;;;3.90;1.45;;;12.60;78.00;;;;;;6245076;22;20069;-69
2022/06/06 09:34:12;;;;;;;3.47;1.23;;;12.50;78.10;;;;;;6244809;22;20000;-66
2022/06/06 09:37:01;;;;;;;2.22;1.10;;;12.50;78.40;;;;;;6245322;22;20000;-64
2022/06/06 09:39:46;;;;;;;2.30;1.30;;;12.40;78.40;;;;;;6245169;23;20012;-66
2022/06/06 09:42:35;;;;;;;4.35;1.40;;;12.40;78.60;;;;;;6244690;22;20042;-64
2022/06/06 09:45:30;;;;;;;2.38;0.90;;;12.40;78.30;;;;;;6245905;22;19996;-64
2022/06/06 09:48:12;;;;;;;2.60;1.02;;;12.30;78.90;;;;;;6181963;23;20004;-64
2022/06/06 09:51:02;;;;;;;2.55;1.77;;;12.30;79.10;;;;;;6245529;22;20031;-64
2022/06/06 10:00:20;;;;;;;4.75;2.45;;;12.20;79.30;;;;;;6244996;23;20015;-65
2022/06/06 10:03:24;;;;;;;5.23;2.30;;;12.10;79.30;;;;;;6245121;22;20022;-77
2022/06/06 10:06:35;;;;;;;5.82;1.95;;;12.00;79.70;;;;;;6243037;23;20008;-71
2022/06/06 10:10:00;;;;;;;3.00;1.00;;;12.00;79.20;;;;;;6217768;22;20012;-78
2022/06/06 10:13:09;;;;;;;4.32;1.23;;;12.10;79.60;;;;;;6246614;22;20004;-73
2022/06/06 10:15:56;;;;;;;3.30;1.25;;;12.00;80.00;;;;;;6228458;23;20019;-71
2022/06/06 10:18:59;;;;;;;2.40;1.00;;;12.00;80.50;;;;;;6244849;22;20000;-71
2022/06/06 10:21:56;;;;;;;2.53;1.50;;;11.90;80.40;;;;;;6243898;22;20004;-67
2022/06/06 10:24:48;;;;;;;3.20;1.20;;;11.90;80.50;;;;;;6243467;22;20058;-72
2022/06/06 10:27:31;;;;;;;5.32;1.50;;;11.80;80.70;;;;;;6242987;23;20602;-65
2022/06/06 10:30:11;;;;;;;5.60;1.40;;;11.80;81.10;;;;;;6243597;22;20083;-65
2022/06/06 10:33:06;;;;;;;2.88;1.20;;;11.70;81.50;;;;;;6244041;22;20004;-66
2022/06/06 10:36:00;;;;;;;3.85;1.48;;;11.70;81.60;;;;;;6243866;22;20042;-66
2022/06/06 10:38:58;;;;;;;2.08;0.95;;;11.60;81.80;;;;;;6243143;22;20008;-66
2022/06/06 10:41:38;;;;;;;3.88;1.50;;;11.70;81.90;;;;;;6241824;22;20346;-71
2022/06/06 10:44:35;;;;;;;3.25;1.35;;;11.60;82.10;;;;;;6242053;22;20334;-66
2022/06/06 10:47:33;;;;;;;4.20;1.40;;;11.50;82.10;;;;;;6243586;22;20027;-67
2022/06/06 10:50:18;;;;;;;4.25;1.65;;;11.60;82.70;;;;;;6243237;22;20031;-75
2022/06/06 10:52:59;;;;;;;3.97;1.20;;;11.50;83.00;;;;;;6244844;22;20002;-68
2022/06/06 10:55:45;;;;;;;3.70;1.20;;;11.50;82.90;;;;;;6246319;22;20089;-74
2022/06/06 10:58:48;;;;;;;4.28;1.13;;;11.40;83.20;;;;;;6241605;23;20011;-69
2022/06/06 11:01:38;;;;;;;6.03;1.85;;;11.50;83.20;;;;;;6243639;23;20087;-73
2022/06/06 11:04:17;;;;;;;3.45;1.05;;;11.50;83.90;;;;;;6243700;22;20012;-68
2022/06/06 11:06:56;;;;;;;2.97;1.00;;;11.50;83.80;;;;;;6244443;22;20010;-70
2022/06/06 11:09:39;;;;;;;4.88;1.23;;;11.50;84.00;;;;;;6245476;22;20643;-66
2022/06/06 11:12:40;;;;;;;4.53;1.33;;;11.50;84.40;;;;;;6243064;23;20004;-68
2022/06/06 11:15:11;;;;;;;3.38;1.27;;;11.50;84.60;;;;;;6244811;22;20020;-69
2022/06/06 11:18:10;;;;;;;4.65;1.45;;;11.50;84.80;;;;;;6245430;22;20007;-68
2022/06/06 11:21:09;;;;;;;5.07;1.48;;;11.40;85.30;;;;;;6245627;23;20338;-73
2022/06/06 11:23:41;;;;;;;5.10;1.98;;;11.40;85.40;;;;;;6245719;23;20008;-66
2022/06/06 11:26:33;;;;;;;10.45;2.42;;;11.40;85.60;;;;;;6245086;22;20004;-65
2022/06/06 11:29:18;;;;;;;3.35;1.83;;;11.40;85.60;;;;;;6244180;22;20097;-74
2022/06/06 11:32:11;;;;;;;5.68;2.28;;;11.50;85.60;;;;;;6245165;22;20004;-71
2022/06/06 11:34:59;;;;;;;5.45;1.10;;;11.40;85.80;;;;;;6245504;22;20007;-69
2022/06/06 11:37:52;;;;;;;4.03;1.25;;;11.40;86.00;;;;;;6245268;22;20058;-65
2022/06/06 11:40:38;;;;;;;6.07;2.40;;;11.40;86.00;;;;;;6245592;22;20000;-65
2022/06/06 11:44:02;;;;;;;4.32;1.20;;;11.40;86.60;;;;;;6245328;23;20006;-67
2022/06/06 11:46:48;;;;;;;4.28;2.15;;;11.40;86.20;;;;;;6122781;23;20101;-64
2022/06/06 11:49:30;;;;;;;2.10;1.50;;;11.40;86.50;;;;;;6123299;23;20028;-66
2022/06/06 11:52:24;;;;;;;4.70;1.20;;;11.30;86.80;;;;;;6226743;22;20004;-63
2022/06/06 11:55:16;;;;;;;5.25;2.00;;;11.30;86.70;;;;;;6245162;22;20000;-66
2022/06/06 11:58:20;;;;;;;3.05;1.23;;;11.30;86.70;;;;;;6245250;23;20004;-74
2022/06/06 12:00:50;;;;;;;3.20;0.93;;;11.30;86.80;;;;;;6245086;22;20004;-74
2022/06/06 12:03:42;;;;;;;4.53;2.08;;;11.30;86.90;;;;;;6244869;22;20079;-66
2022/06/06 12:06:09;;;;;;;2.78;0.90;;;11.30;86.80;;;;;;6244481;23;20079;-68
2022/06/06 12:08:41;;;;;;;3.63;1.17;;;11.30;86.60;;;;;;6245458;22;20023;-69
2022/06/06 12:11:27;;;;;;;2.38;0.80;;;11.30;86.90;;;;;;6245714;22;20349;-73
2022/06/06 12:14:25;;;;;;;4.47;1.45;;;11.30;87.20;;;;;;6245445;22;20000;-75
2022/06/06 12:17:20;;;;;;;5.50;1.80;;;11.20;87.00;;;;;;6244782;23;20010;-71
2022/06/06 12:20:25;;;;;;;3.42;0.73;;;11.20;87.20;;;;;;6244573;22;20055;-69
2022/06/06 12:23:04;;;;;;;2.45;1.17;;;11.20;87.60;;;;;;6209070;23;20008;-70
2022/06/06 12:25:50;;;;;;;4.13;0.90;;;11.20;87.40;;;;;;6244038;22;20051;-68
2022/06/06 12:28:47;;;;;;;5.05;1.00;;;11.20;87.90;;;;;;6244100;23;20000;-78
2022/06/06 12:31:41;;;;;;;5.10;1.30;;;11.10;88.10;;;;;;6244348;23;20004;-74
2022/06/06 12:34:35;;;;;;;4.78;1.20;;;11.10;88.10;;;;;;6244374;23;20004;-73
2022/06/06 12:37:16;;;;;;;7.55;1.95;;;11.10;88.40;;;;;;6244251;22;20007;-66
2022/06/06 12:39:58;;;;;;;5.82;1.25;;;11.00;88.90;;;;;;6244175;22;20004;-73
2022/06/06 12:42:37;;;;;;;4.22;1.00;;;11.10;88.60;;;;;;6242194;23;20090;-76
2022/06/06 12:45:26;;;;;;;4.40;1.15;;;11.00;88.60;;;;;;6243396;22;20430;-68
2022/06/06 12:48:38;;;;;;;3.08;1.30;;;11.00;88.90;;;;;;6243904;22;20467;-70
2022/06/06 12:52:08;;;;;;;3.58;0.95;;;11.00;89.60;;;;;;6243297;22;20030;-76
2022/06/06 12:58:12;;;;;;;2.42;0.88;;;10.90;89.70;;;;;;6122271;23;20040;-74
2022/06/06 13:03:52;;;;;;;2.95;1.02;;;10.90;90.10;;;;;;6242224;23;20034;-74
2022/06/06 13:06:47;;;;;;;3.72;0.88;;;10.90;90.50;;;;;;6243298;22;20028;-73
2022/06/06 13:09:47;;;;;;;6.13;1.50;;;10.70;90.50;;;;;;6243727;22;20324;-76
2022/06/06 13:12:40;;;;;;;4.10;1.13;;;10.80;90.90;;;;;;6241258;23;20027;-76
2022/06/06 13:15:37;;;;;;;5.90;1.50;;;10.70;90.90;;;;;;6243418;22;20015;-71
2022/06/06 13:18:34;;;;;;;4.97;1.52;;;10.70;91.00;;;;;;6243195;22;20001;-74
2022/06/06 13:21:04;;;;;;;3.30;1.25;;;10.60;91.20;;;;;;6243566;23;20008;-70
2022/06/06 13:23:37;;;;;;;2.42;0.80;;;10.60;91.70;;;;;;6243046;22;20028;-77
2022/06/06 13:26:38;;;;;;;3.65;1.00;;;10.60;91.90;;;;;;6242560;22;20004;-74
2022/06/06 13:29:06;;;;;;;6.78;1.08;;;10.50;92.40;;;;;;6241645;22;20047;-77
2022/06/06 13:31:57;;;;;;;4.57;1.55;;;10.40;92.60;;;;;;6243132;22;19996;-72
2022/06/06 13:34:43;;;;;;;2.92;1.13;;;10.40;92.70;;;;;;6244589;22;20007;-73
2022/06/06 13:37:49;;;;;;;4.75;1.48;;;10.30;92.70;;;;;;6244805;22;20335;-73
2022/06/06 13:40:42;;;;;;;2.80;1.00;;;10.20;93.10;;;;;;6244929;22;20008;-74
2022/06/06 13:43:28;;;;;;;6.78;1.00;;;10.20;93.60;;;;;;6244573;22;20008;-70
2022/06/06 13:46:17;;;;;;;4.05;1.10;;;10.10;92.50;;;;;;6243653;22;20335;-71
2022/06/06 13:49:11;;;;;;;4.82;1.27;;;10.20;92.60;;;;;;6243402;22;20015;-76
2022/06/06 13:51:42;;;;;;;4.90;1.00;;;10.20;92.30;;;;;;6244029;23;20008;-73
2022/06/06 13:54:36;;;;;;;4.55;1.00;;;10.10;92.50;;;;;;6244878;22;20000;-77
2022/06/06 13:57:15;;;;;;;3.58;1.15;;;10.20;92.40;;;;;;6244559;22;20445;-69
2022/06/06 14:00:00;;;;;;;5.40;1.30;;;10.20;92.80;;;;;;6244664;22;20024;-76
2022/06/06 14:02:42;;;;;;;10.15;2.10;;;10.20;93.30;;;;;;6244242;22;20004;-76
2022/06/06 14:05:36;;;;;;;5.50;1.70;;;10.10;93.20;;;;;;6244865;22;20066;-67
2022/06/06 14:08:20;;;;;;;5.38;1.27;;;10.10;93.50;;;;;;6243907;22;20237;-70
2022/06/06 14:10:53;;;;;;;7.80;1.63;;;10.10;93.50;;;;;;6244111;22;20004;-77
2022/06/06 14:13:47;;;;;;;3.35;1.25;;;10.10;93.10;;;;;;6244556;22;20000;-71
2022/06/06 14:16:17;;;;;;;3.92;1.20;;;10.10;92.80;;;;;;6244634;22;20004;-68
2022/06/06 14:18:46;;;;;;;3.90;1.23;;;10.00;92.60;;;;;;6244544;22;20011;-65
2022/06/06 14:21:25;;;;;;;6.38;1.17;;;10.10;92.80;;;;;;6244406;22;20047;-72
2022/06/06 14:24:08;;;;;;;4.80;1.20;;;10.10;93.40;;;;;;6243956;22;20419;-77
2022/06/06 14:26:36;;;;;;;4.63;1.10;;;10.10;93.00;;;;;;6244102;22;20410;-76
2022/06/06 14:29:15;;;;;;;4.32;1.05;;;10.10;93.40;;;;;;6243947;22;20331;-75
2022/06/06 14:32:19;;;;;;;3.47;1.00;;;10.10;93.40;;;;;;6242841;23;20024;-76
2022/06/06 14:34:51;;;;;;;3.05;0.90;;;10.10;93.40;;;;;;6244437;22;20032;-77
2022/06/06 14:37:25;;;;;;;8.48;1.27;;;10.10;93.80;;;;;;6244431;22;20126;-71
2022/06/06 14:39:57;;;;;;;4.72;1.38;;;10.10;94.00;;;;;;6243849;22;20300;-73
2022/06/06 14:42:59;;;;;;;5.68;1.38;;;10.10;93.40;;;;;;6244169;22;20427;-75